sensor_id;sensor_type;location;lat;lon;timestamp;P1;durP1;ratioP1;P2;durP2;ratioP2
8632;SDS011;4354;49.832;10.746;2023-03-02T00:01:05;35.03;;;22.37;;
8632;SDS011;4354;49.832;10.746;2023-03-02T00:03:37;34.77;;;21.97;;
8632;SDS011;4354;49.832;10.746;2023-03-02T00:06:07;32.30;;;21.70;;
8632;SDS011;4354;49.832;10.746;2023-03-02T00:08:35;32.00;;;21.50;;
8632;SDS011;4354;49.832;10.746;2023-03-02T00:11:03;34.23;;;21.43;;
8632;SDS011;4354;49.832;10.746;2023-03-02T00:13:30;34.97;;;20.87;;
8632;SDS011;4354;49.832;10.746;2023-03-02T00:15:59;33.50;;;21.27;;
8632;SDS011;4354;49.832;10.746;2023-03-02T00:18:26;35.43;;;21.57;;
8632;SDS011;4354;49.832;10.746;2023-03-02T00:20:53;34.37;;;21.27;;
8632;SDS011;4354;49.832;10.746;2023-03-02T00:23:20;30.23;;;20.90;;
8632;SDS011;4354;49.832;10.746;2023-03-02T00:25:47;35.03;;;22.03;;
8632;SDS011;4354;49.832;10.746;2023-03-02T00:28:14;33.80;;;21.33;;
8632;SDS011;4354;49.832;10.746;2023-03-02T00:30:40;34.73;;;21.87;;
8632;SDS011;4354;49.832;10.746;2023-03-02T00:33:07;33.47;;;21.07;;
8632;SDS011;4354;49.832;10.746;2023-03-02T00:35:38;32.03;;;20.80;;
8632;SDS011;4354;49.832;10.746;2023-03-02T00:38:07;31.50;;;20.27;;
8632;SDS011;4354;49.832;10.746;2023-03-02T00:40:34;36.77;;;21.17;;
8632;SDS011;4354;49.832;10.746;2023-03-02T00:43:02;34.63;;;22.77;;
8632;SDS011;4354;49.832;10.746;2023-03-02T00:45:29;34.40;;;22.13;;
8632;SDS011;4354;49.832;10.746;2023-03-02T00:47:56;37.67;;;22.20;;
8632;SDS011;4354;49.832;10.746;2023-03-02T00:50:23;36.93;;;22.47;;
8632;SDS011;4354;49.832;10.746;2023-03-02T00:52:50;32.27;;;20.87;;
8632;SDS011;4354;49.832;10.746;2023-03-02T00:55:17;36.03;;;22.80;;
8632;SDS011;4354;49.832;10.746;2023-03-02T00:57:44;33.30;;;21.40;;
8632;SDS011;4354;49.832;10.746;2023-03-02T01:00:20;34.53;;;22.07;;
8632;SDS011;4354;49.832;10.746;2023-03-02T01:02:49;29.80;;;19.67;;
8632;SDS011;4354;49.832;10.746;2023-03-02T01:05:16;36.23;;;21.73;;
8632;SDS011;4354;49.832;10.746;2023-03-02T01:07:43;34.80;;;21.13;;
8632;SDS011;4354;49.832;10.746;2023-03-02T01:10:10;34.90;;;21.03;;
8632;SDS011;4354;49.832;10.746;2023-03-02T01:12:38;35.50;;;21.70;;
8632;SDS011;4354;49.832;10.746;2023-03-02T01:15:06;37.83;;;21.87;;
8632;SDS011;4354;49.832;10.746;2023-03-02T01:17:34;35.00;;;22.37;;
8632;SDS011;4354;49.832;10.746;2023-03-02T01:20:00;35.43;;;22.07;;
8632;SDS011;4354;49.832;10.746;2023-03-02T01:22:27;39.03;;;22.63;;
8632;SDS011;4354;49.832;10.746;2023-03-02T01:24:54;35.23;;;22.13;;
8632;SDS011;4354;49.832;10.746;2023-03-02T01:27:21;34.77;;;22.13;;
8632;SDS011;4354;49.832;10.746;2023-03-02T01:29:48;34.77;;;22.23;;
8632;SDS011;4354;49.832;10.746;2023-03-02T01:32:15;35.37;;;22.40;;
8632;SDS011;4354;49.832;10.746;2023-03-02T01:34:42;30.83;;;21.13;;
8632;SDS011;4354;49.832;10.746;2023-03-02T01:37:09;32.90;;;21.53;;
8632;SDS011;4354;49.832;10.746;2023-03-02T01:39:36;32.33;;;20.57;;
8632;SDS011;4354;49.832;10.746;2023-03-02T01:42:03;36.70;;;23.17;;
8632;SDS011;4354;49.832;10.746;2023-03-02T01:44:34;34.63;;;21.17;;
8632;SDS011;4354;49.832;10.746;2023-03-02T01:47:04;35.40;;;21.73;;
8632;SDS011;4354;49.832;10.746;2023-03-02T01:49:58;38.27;;;21.80;;
8632;SDS011;4354;49.832;10.746;2023-03-02T01:52:28;33.20;;;21.47;;
8632;SDS011;4354;49.832;10.746;2023-03-02T01:54:59;37.87;;;22.50;;
8632;SDS011;4354;49.832;10.746;2023-03-02T01:57:31;36.67;;;22.37;;
8632;SDS011;4354;49.832;10.746;2023-03-02T02:00:11;34.30;;;21.70;;
8632;SDS011;4354;49.832;10.746;2023-03-02T02:02:41;33.87;;;22.17;;
8632;SDS011;4354;49.832;10.746;2023-03-02T02:05:09;34.30;;;21.60;;
8632;SDS011;4354;49.832;10.746;2023-03-02T02:07:38;36.07;;;22.47;;
8632;SDS011;4354;49.832;10.746;2023-03-02T02:10:06;36.90;;;22.20;;
8632;SDS011;4354;49.832;10.746;2023-03-02T02:12:33;40.47;;;21.97;;
8632;SDS011;4354;49.832;10.746;2023-03-02T02:15:03;31.43;;;21.33;;
8632;SDS011;4354;49.832;10.746;2023-03-02T02:17:31;35.33;;;21.60;;
8632;SDS011;4354;49.832;10.746;2023-03-02T02:25:09;40.17;;;23.00;;
8632;SDS011;4354;49.832;10.746;2023-03-02T02:27:44;36.27;;;21.70;;
8632;SDS011;4354;49.832;10.746;2023-03-02T02:30:12;32.67;;;21.33;;
8632;SDS011;4354;49.832;10.746;2023-03-02T02:32:40;34.23;;;21.93;;
8632;SDS011;4354;49.832;10.746;2023-03-02T02:35:17;35.73;;;23.27;;
8632;SDS011;4354;49.832;10.746;2023-03-02T02:37:50;39.97;;;22.17;;
8632;SDS011;4354;49.832;10.746;2023-03-02T02:40:36;34.70;;;22.43;;
8632;SDS011;4354;49.832;10.746;2023-03-02T02:43:07;32.90;;;21.20;;
8632;SDS011;4354;49.832;10.746;2023-03-02T02:45:38;36.23;;;22.87;;
8632;SDS011;4354;49.832;10.746;2023-03-02T02:48:07;35.37;;;21.77;;
8632;SDS011;4354;49.832;10.746;2023-03-02T02:50:40;32.70;;;21.30;;
8632;SDS011;4354;49.832;10.746;2023-03-02T02:53:10;34.83;;;22.83;;
8632;SDS011;4354;49.832;10.746;2023-03-02T02:55:41;34.93;;;21.17;;
8632;SDS011;4354;49.832;10.746;2023-03-02T02:58:26;34.17;;;21.27;;
8632;SDS011;4354;49.832;10.746;2023-03-02T03:00:59;35.50;;;21.07;;
8632;SDS011;4354;49.832;10.746;2023-03-02T03:03:27;34.47;;;22.03;;
8632;SDS011;4354;49.832;10.746;2023-03-02T03:06:00;37.53;;;21.83;;
8632;SDS011;4354;49.832;10.746;2023-03-02T03:11:28;31.67;;;20.23;;
8632;SDS011;4354;49.832;10.746;2023-03-02T03:14:08;34.07;;;21.70;;
8632;SDS011;4354;49.832;10.746;2023-03-02T03:16:36;37.03;;;22.57;;
8632;SDS011;4354;49.832;10.746;2023-03-02T03:19:19;33.47;;;22.47;;
8632;SDS011;4354;49.832;10.746;2023-03-02T03:21:58;35.23;;;23.03;;
8632;SDS011;4354;49.832;10.746;2023-03-02T03:24:29;35.27;;;21.57;;
8632;SDS011;4354;49.832;10.746;2023-03-02T03:26:59;33.17;;;20.50;;
8632;SDS011;4354;49.832;10.746;2023-03-02T03:29:27;32.93;;;21.30;;
8632;SDS011;4354;49.832;10.746;2023-03-02T03:31:55;33.23;;;21.17;;
8632;SDS011;4354;49.832;10.746;2023-03-02T03:34:23;33.33;;;20.63;;
8632;SDS011;4354;49.832;10.746;2023-03-02T03:36:51;31.73;;;20.47;;
8632;SDS011;4354;49.832;10.746;2023-03-02T03:39:18;33.57;;;21.00;;
8632;SDS011;4354;49.832;10.746;2023-03-02T03:41:45;33.07;;;20.73;;
8632;SDS011;4354;49.832;10.746;2023-03-02T03:44:13;32.33;;;20.67;;
8632;SDS011;4354;49.832;10.746;2023-03-02T03:46:39;35.07;;;20.73;;
8632;SDS011;4354;49.832;10.746;2023-03-02T03:49:06;32.00;;;20.80;;
8632;SDS011;4354;49.832;10.746;2023-03-02T03:51:33;33.80;;;20.77;;
8632;SDS011;4354;49.832;10.746;2023-03-02T03:54:04;32.80;;;21.10;;
8632;SDS011;4354;49.832;10.746;2023-03-02T03:56:38;32.93;;;20.47;;
8632;SDS011;4354;49.832;10.746;2023-03-02T03:59:12;30.37;;;20.00;;
8632;SDS011;4354;49.832;10.746;2023-03-02T04:01:45;32.00;;;20.57;;
8632;SDS011;4354;49.832;10.746;2023-03-02T04:04:16;35.60;;;20.70;;
8632;SDS011;4354;49.832;10.746;2023-03-02T04:06:45;34.60;;;21.43;;
8632;SDS011;4354;49.832;10.746;2023-03-02T04:09:12;34.93;;;20.43;;
8632;SDS011;4354;49.832;10.746;2023-03-02T04:11:41;36.40;;;20.97;;
8632;SDS011;4354;49.832;10.746;2023-03-02T04:14:09;31.67;;;22.07;;
8632;SDS011;4354;49.832;10.746;2023-03-02T04:16:37;33.93;;;20.60;;
8632;SDS011;4354;49.832;10.746;2023-03-02T04:19:05;32.30;;;20.77;;
8632;SDS011;4354;49.832;10.746;2023-03-02T04:21:36;34.13;;;21.00;;
8632;SDS011;4354;49.832;10.746;2023-03-02T04:24:07;32.37;;;21.60;;
8632;SDS011;4354;49.832;10.746;2023-03-02T04:26:35;35.87;;;21.77;;
8632;SDS011;4354;49.832;10.746;2023-03-02T04:29:03;35.43;;;21.80;;
8632;SDS011;4354;49.832;10.746;2023-03-02T04:31:31;36.77;;;22.00;;
8632;SDS011;4354;49.832;10.746;2023-03-02T04:33:58;36.07;;;20.43;;
8632;SDS011;4354;49.832;10.746;2023-03-02T04:36:25;33.83;;;20.73;;
8632;SDS011;4354;49.832;10.746;2023-03-02T04:38:52;33.80;;;21.37;;
8632;SDS011;4354;49.832;10.746;2023-03-02T04:41:20;30.93;;;19.03;;
8632;SDS011;4354;49.832;10.746;2023-03-02T04:43:47;33.03;;;21.27;;
8632;SDS011;4354;49.832;10.746;2023-03-02T04:46:15;34.13;;;21.17;;
8632;SDS011;4354;49.832;10.746;2023-03-02T04:48:47;33.87;;;21.27;;
8632;SDS011;4354;49.832;10.746;2023-03-02T04:51:19;33.83;;;19.80;;
8632;SDS011;4354;49.832;10.746;2023-03-02T04:53:52;31.23;;;20.13;;
8632;SDS011;4354;49.832;10.746;2023-03-02T04:56:19;33.23;;;20.40;;
8632;SDS011;4354;49.832;10.746;2023-03-02T04:58:47;38.17;;;22.03;;
8632;SDS011;4354;49.832;10.746;2023-03-02T05:01:14;35.13;;;22.03;;
8632;SDS011;4354;49.832;10.746;2023-03-02T05:03:43;42.90;;;28.27;;
8632;SDS011;4354;49.832;10.746;2023-03-02T05:06:11;37.33;;;22.77;;
8632;SDS011;4354;49.832;10.746;2023-03-02T05:08:38;35.27;;;22.00;;
8632;SDS011;4354;49.832;10.746;2023-03-02T05:11:06;39.07;;;22.37;;
8632;SDS011;4354;49.832;10.746;2023-03-02T05:13:33;37.33;;;22.40;;
8632;SDS011;4354;49.832;10.746;2023-03-02T05:16:01;35.57;;;20.80;;
8632;SDS011;4354;49.832;10.746;2023-03-02T05:18:28;36.90;;;21.53;;
8632;SDS011;4354;49.832;10.746;2023-03-02T05:20:55;34.17;;;21.10;;
8632;SDS011;4354;49.832;10.746;2023-03-02T05:23:22;36.30;;;21.87;;
8632;SDS011;4354;49.832;10.746;2023-03-02T05:25:51;33.70;;;20.73;;
8632;SDS011;4354;49.832;10.746;2023-03-02T05:28:23;34.50;;;21.43;;
8632;SDS011;4354;49.832;10.746;2023-03-02T05:30:51;32.63;;;21.00;;
8632;SDS011;4354;49.832;10.746;2023-03-02T05:33:18;36.73;;;21.97;;
8632;SDS011;4354;49.832;10.746;2023-03-02T05:35:45;35.43;;;22.07;;
8632;SDS011;4354;49.832;10.746;2023-03-02T05:38:12;35.97;;;22.80;;
8632;SDS011;4354;49.832;10.746;2023-03-02T05:40:40;35.80;;;20.23;;
8632;SDS011;4354;49.832;10.746;2023-03-02T05:43:08;33.50;;;19.83;;
8632;SDS011;4354;49.832;10.746;2023-03-02T05:45:37;33.47;;;20.53;;
8632;SDS011;4354;49.832;10.746;2023-03-02T05:48:04;33.07;;;20.00;;
8632;SDS011;4354;49.832;10.746;2023-03-02T05:50:32;34.23;;;20.53;;
8632;SDS011;4354;49.832;10.746;2023-03-02T05:52:59;35.87;;;20.97;;
8632;SDS011;4354;49.832;10.746;2023-03-02T05:55:28;33.00;;;20.07;;
8632;SDS011;4354;49.832;10.746;2023-03-02T05:57:55;31.60;;;20.33;;
8632;SDS011;4354;49.832;10.746;2023-03-02T06:00:22;32.40;;;20.13;;
8632;SDS011;4354;49.832;10.746;2023-03-02T06:02:49;35.83;;;21.03;;
8632;SDS011;4354;49.832;10.746;2023-03-02T06:05:17;34.13;;;20.40;;
8632;SDS011;4354;49.832;10.746;2023-03-02T06:07:44;31.20;;;20.50;;
8632;SDS011;4354;49.832;10.746;2023-03-02T06:10:12;32.17;;;20.43;;
8632;SDS011;4354;49.832;10.746;2023-03-02T06:12:39;30.47;;;19.43;;
8632;SDS011;4354;49.832;10.746;2023-03-02T06:15:06;36.30;;;21.27;;
8632;SDS011;4354;49.832;10.746;2023-03-02T06:17:34;32.43;;;20.50;;
8632;SDS011;4354;49.832;10.746;2023-03-02T06:20:01;33.40;;;20.53;;
8632;SDS011;4354;49.832;10.746;2023-03-02T06:22:39;33.57;;;20.17;;
8632;SDS011;4354;49.832;10.746;2023-03-02T06:25:08;29.43;;;18.80;;
8632;SDS011;4354;49.832;10.746;2023-03-02T06:27:37;28.70;;;19.13;;
8632;SDS011;4354;49.832;10.746;2023-03-02T06:30:06;32.17;;;19.77;;
8632;SDS011;4354;49.832;10.746;2023-03-02T06:32:34;29.93;;;18.93;;
8632;SDS011;4354;49.832;10.746;2023-03-02T06:35:02;32.20;;;19.60;;
8632;SDS011;4354;49.832;10.746;2023-03-02T06:37:31;30.97;;;20.53;;
8632;SDS011;4354;49.832;10.746;2023-03-02T06:39:58;29.87;;;19.70;;
8632;SDS011;4354;49.832;10.746;2023-03-02T06:42:26;30.40;;;19.47;;
8632;SDS011;4354;49.832;10.746;2023-03-02T06:44:53;30.00;;;18.63;;
8632;SDS011;4354;49.832;10.746;2023-03-02T06:47:21;30.43;;;19.87;;
8632;SDS011;4354;49.832;10.746;2023-03-02T06:49:48;32.57;;;20.23;;
8632;SDS011;4354;49.832;10.746;2023-03-02T06:52:15;32.33;;;19.43;;
8632;SDS011;4354;49.832;10.746;2023-03-02T06:54:42;30.97;;;19.33;;
8632;SDS011;4354;49.832;10.746;2023-03-02T06:57:09;27.13;;;18.33;;
8632;SDS011;4354;49.832;10.746;2023-03-02T06:59:36;27.73;;;18.40;;
8632;SDS011;4354;49.832;10.746;2023-03-02T07:02:03;30.63;;;19.37;;
8632;SDS011;4354;49.832;10.746;2023-03-02T07:04:30;27.03;;;18.30;;
8632;SDS011;4354;49.832;10.746;2023-03-02T07:06:57;29.50;;;18.97;;
8632;SDS011;4354;49.832;10.746;2023-03-02T07:09:24;31.13;;;19.03;;
8632;SDS011;4354;49.832;10.746;2023-03-02T07:11:51;28.93;;;18.70;;
8632;SDS011;4354;49.832;10.746;2023-03-02T07:14:18;28.27;;;18.30;;
8632;SDS011;4354;49.832;10.746;2023-03-02T07:16:44;26.60;;;18.40;;
8632;SDS011;4354;49.832;10.746;2023-03-02T07:19:11;29.47;;;17.90;;
8632;SDS011;4354;49.832;10.746;2023-03-02T07:21:39;28.70;;;18.57;;
8632;SDS011;4354;49.832;10.746;2023-03-02T07:24:06;27.80;;;17.93;;
8632;SDS011;4354;49.832;10.746;2023-03-02T07:26:33;29.47;;;18.53;;
8632;SDS011;4354;49.832;10.746;2023-03-02T07:29:00;27.13;;;18.70;;
8632;SDS011;4354;49.832;10.746;2023-03-02T07:31:27;27.13;;;18.17;;
8632;SDS011;4354;49.832;10.746;2023-03-02T07:33:54;26.03;;;16.87;;
8632;SDS011;4354;49.832;10.746;2023-03-02T07:36:20;27.43;;;17.77;;
8632;SDS011;4354;49.832;10.746;2023-03-02T07:38:47;22.87;;;16.30;;
8632;SDS011;4354;49.832;10.746;2023-03-02T07:41:14;25.83;;;17.37;;
8632;SDS011;4354;49.832;10.746;2023-03-02T07:43:42;23.13;;;16.57;;
8632;SDS011;4354;49.832;10.746;2023-03-02T07:46:09;25.10;;;15.87;;
8632;SDS011;4354;49.832;10.746;2023-03-02T07:48:36;19.97;;;15.17;;
8632;SDS011;4354;49.832;10.746;2023-03-02T07:51:03;22.47;;;15.57;;
8632;SDS011;4354;49.832;10.746;2023-03-02T07:53:31;20.00;;;15.43;;
8632;SDS011;4354;49.832;10.746;2023-03-02T07:55:58;17.80;;;14.47;;
8632;SDS011;4354;49.832;10.746;2023-03-02T07:58:27;18.37;;;14.60;;
8632;SDS011;4354;49.832;10.746;2023-03-02T08:00:54;17.95;;;15.77;;
8632;SDS011;4354;49.832;10.746;2023-03-02T08:03:21;18.42;;;14.75;;
8632;SDS011;4354;49.832;10.746;2023-03-02T08:05:48;19.88;;;15.23;;
8632;SDS011;4354;49.832;10.746;2023-03-02T08:08:14;18.92;;;14.88;;
8632;SDS011;4354;49.832;10.746;2023-03-02T08:10:41;18.67;;;14.77;;
8632;SDS011;4354;49.832;10.746;2023-03-02T08:13:08;19.95;;;14.68;;
8632;SDS011;4354;49.832;10.746;2023-03-02T08:15:35;15.73;;;14.07;;
8632;SDS011;4354;49.832;10.746;2023-03-02T08:18:02;16.27;;;14.38;;
8632;SDS011;4354;49.832;10.746;2023-03-02T08:20:29;17.13;;;15.32;;
8632;SDS011;4354;49.832;10.746;2023-03-02T08:22:55;16.52;;;14.82;;
8632;SDS011;4354;49.832;10.746;2023-03-02T08:25:22;14.93;;;13.38;;
8632;SDS011;4354;49.832;10.746;2023-03-02T08:27:49;18.38;;;15.68;;
8632;SDS011;4354;49.832;10.746;2023-03-02T08:30:16;16.15;;;14.55;;
8632;SDS011;4354;49.832;10.746;2023-03-02T08:32:43;16.48;;;14.77;;
8632;SDS011;4354;49.832;10.746;2023-03-02T08:35:11;15.32;;;13.70;;
8632;SDS011;4354;49.832;10.746;2023-03-02T08:37:38;20.30;;;14.88;;
8632;SDS011;4354;49.832;10.746;2023-03-02T08:40:05;16.83;;;15.05;;
8632;SDS011;4354;49.832;10.746;2023-03-02T08:42:32;17.80;;;15.75;;
8632;SDS011;4354;49.832;10.746;2023-03-02T08:44:59;16.58;;;14.77;;
8632;SDS011;4354;49.832;10.746;2023-03-02T08:47:26;17.02;;;15.30;;
8632;SDS011;4354;49.832;10.746;2023-03-02T08:49:53;15.73;;;13.98;;
8632;SDS011;4354;49.832;10.746;2023-03-02T08:52:20;17.38;;;14.68;;
8632;SDS011;4354;49.832;10.746;2023-03-02T08:54:47;16.23;;;14.52;;
8632;SDS011;4354;49.832;10.746;2023-03-02T08:57:13;15.57;;;13.63;;
8632;SDS011;4354;49.832;10.746;2023-03-02T08:59:40;16.30;;;14.32;;
8632;SDS011;4354;49.832;10.746;2023-03-02T09:02:09;15.88;;;14.27;;
8632;SDS011;4354;49.832;10.746;2023-03-02T09:04:37;14.60;;;13.15;;
8632;SDS011;4354;49.832;10.746;2023-03-02T09:07:04;15.73;;;14.13;;
8632;SDS011;4354;49.832;10.746;2023-03-02T09:09:31;17.42;;;15.73;;
8632;SDS011;4354;49.832;10.746;2023-03-02T09:11:58;18.42;;;16.65;;
8632;SDS011;4354;49.832;10.746;2023-03-02T09:14:25;16.42;;;14.73;;
8632;SDS011;4354;49.832;10.746;2023-03-02T09:16:52;22.70;;;20.30;;
8632;SDS011;4354;49.832;10.746;2023-03-02T09:19:19;20.63;;;18.50;;
8632;SDS011;4354;49.832;10.746;2023-03-02T09:21:46;16.67;;;15.07;;
8632;SDS011;4354;49.832;10.746;2023-03-02T09:24:13;17.63;;;14.32;;
8632;SDS011;4354;49.832;10.746;2023-03-02T09:26:40;17.80;;;14.38;;
8632;SDS011;4354;49.832;10.746;2023-03-02T09:29:07;16.73;;;13.70;;
8632;SDS011;4354;49.832;10.746;2023-03-02T09:31:34;16.90;;;13.10;;
8632;SDS011;4354;49.832;10.746;2023-03-02T09:34:02;17.33;;;13.73;;
8632;SDS011;4354;49.832;10.746;2023-03-02T09:36:30;14.18;;;12.45;;
8632;SDS011;4354;49.832;10.746;2023-03-02T09:38:57;17.25;;;13.98;;
8632;SDS011;4354;49.832;10.746;2023-03-02T09:41:32;15.00;;;13.50;;
8632;SDS011;4354;49.832;10.746;2023-03-02T09:47:11;15.57;;;12.98;;
8632;SDS011;4354;49.832;10.746;2023-03-02T09:53:00;17.02;;;13.10;;
8632;SDS011;4354;49.832;10.746;2023-03-02T09:56:08;16.90;;;13.43;;
8632;SDS011;4354;49.832;10.746;2023-03-02T09:58:40;17.83;;;13.48;;
8632;SDS011;4354;49.832;10.746;2023-03-02T10:01:14;15.10;;;11.93;;
8632;SDS011;4354;49.832;10.746;2023-03-02T10:03:53;16.27;;;12.40;;
8632;SDS011;4354;49.832;10.746;2023-03-02T10:06:34;15.75;;;9.73;;
8632;SDS011;4354;49.832;10.746;2023-03-02T10:09:01;12.13;;;9.38;;
8632;SDS011;4354;49.832;10.746;2023-03-02T10:11:38;13.25;;;9.02;;
8632;SDS011;4354;49.832;10.746;2023-03-02T10:14:12;15.63;;;9.50;;
8632;SDS011;4354;49.832;10.746;2023-03-02T10:19:21;13.13;;;8.88;;
8632;SDS011;4354;49.832;10.746;2023-03-02T10:22:20;14.50;;;8.93;;
8632;SDS011;4354;49.832;10.746;2023-03-02T10:27:50;16.95;;;9.55;;
8632;SDS011;4354;49.832;10.746;2023-03-02T10:30:27;13.60;;;8.77;;
8632;SDS011;4354;49.832;10.746;2023-03-02T10:32:59;12.20;;;7.53;;
8632;SDS011;4354;49.832;10.746;2023-03-02T10:35:37;16.58;;;8.43;;
8632;SDS011;4354;49.832;10.746;2023-03-02T10:38:14;14.60;;;8.02;;
8632;SDS011;4354;49.832;10.746;2023-03-02T10:40:47;15.38;;;8.73;;
8632;SDS011;4354;49.832;10.746;2023-03-02T10:43:19;16.35;;;9.32;;
8632;SDS011;4354;49.832;10.746;2023-03-02T10:46:06;16.55;;;8.23;;
8632;SDS011;4354;49.832;10.746;2023-03-02T10:48:54;13.95;;;9.45;;
8632;SDS011;4354;49.832;10.746;2023-03-02T10:51:30;12.45;;;7.75;;
8632;SDS011;4354;49.832;10.746;2023-03-02T10:54:10;16.45;;;8.63;;
8632;SDS011;4354;49.832;10.746;2023-03-02T10:56:42;14.32;;;8.98;;
8632;SDS011;4354;49.832;10.746;2023-03-02T11:04:53;13.98;;;8.55;;
8632;SDS011;4354;49.832;10.746;2023-03-02T11:07:24;20.13;;;8.32;;
8632;SDS011;4354;49.832;10.746;2023-03-02T11:12:44;12.68;;;7.78;;
8632;SDS011;4354;49.832;10.746;2023-03-02T11:18:00;12.30;;;7.93;;
8632;SDS011;4354;49.832;10.746;2023-03-02T11:20:46;12.57;;;7.43;;
8632;SDS011;4354;49.832;10.746;2023-03-02T11:26:04;12.90;;;7.50;;
8632;SDS011;4354;49.832;10.746;2023-03-02T11:28:50;13.57;;;7.50;;
8632;SDS011;4354;49.832;10.746;2023-03-02T11:31:26;14.00;;;7.35;;
8632;SDS011;4354;49.832;10.746;2023-03-02T11:36:44;14.23;;;7.25;;
8632;SDS011;4354;49.832;10.746;2023-03-02T11:39:22;13.25;;;7.05;;
8632;SDS011;4354;49.832;10.746;2023-03-02T11:41:54;12.32;;;7.05;;
8632;SDS011;4354;49.832;10.746;2023-03-02T11:44:21;19.80;;;7.32;;
8632;SDS011;4354;49.832;10.746;2023-03-02T11:46:50;12.70;;;7.32;;
8632;SDS011;4354;49.832;10.746;2023-03-02T11:49:26;12.32;;;6.75;;
8632;SDS011;4354;49.832;10.746;2023-03-02T11:52:02;12.52;;;6.57;;
8632;SDS011;4354;49.832;10.746;2023-03-02T11:54:34;13.15;;;6.68;;
8632;SDS011;4354;49.832;10.746;2023-03-02T11:57:51;14.27;;;7.30;;
8632;SDS011;4354;49.832;10.746;2023-03-02T12:00:09;14.32;;;7.63;;
8632;SDS011;4354;49.832;10.746;2023-03-02T12:02:40;11.13;;;6.53;;
8632;SDS011;4354;49.832;10.746;2023-03-02T12:05:21;15.10;;;7.07;;
8632;SDS011;4354;49.832;10.746;2023-03-02T12:10:55;20.02;;;7.00;;
8632;SDS011;4354;49.832;10.746;2023-03-02T12:13:29;15.10;;;6.65;;
8632;SDS011;4354;49.832;10.746;2023-03-02T12:15:57;13.90;;;6.80;;
8632;SDS011;4354;49.832;10.746;2023-03-02T12:18:29;14.55;;;7.38;;
8632;SDS011;4354;49.832;10.746;2023-03-02T12:21:17;12.30;;;6.80;;
8632;SDS011;4354;49.832;10.746;2023-03-02T12:34:37;18.55;;;8.27;;
8632;SDS011;4354;49.832;10.746;2023-03-02T12:45:19;17.38;;;8.55;;
8632;SDS011;4354;49.832;10.746;2023-03-02T12:51:03;18.75;;;9.05;;
8632;SDS011;4354;49.832;10.746;2023-03-02T12:53:38;19.55;;;8.13;;
8632;SDS011;4354;49.832;10.746;2023-03-02T12:56:07;15.98;;;7.57;;
8632;SDS011;4354;49.832;10.746;2023-03-02T12:58:34;14.95;;;7.30;;
8632;SDS011;4354;49.832;10.746;2023-03-02T13:01:02;16.48;;;7.18;;
8632;SDS011;4354;49.832;10.746;2023-03-02T13:03:30;15.85;;;6.65;;
8632;SDS011;4354;49.832;10.746;2023-03-02T13:06:09;15.13;;;7.30;;
8632;SDS011;4354;49.832;10.746;2023-03-02T13:08:41;13.75;;;7.15;;
8632;SDS011;4354;49.832;10.746;2023-03-02T13:11:10;20.20;;;7.20;;
8632;SDS011;4354;49.832;10.746;2023-03-02T13:13:38;13.10;;;7.20;;
8632;SDS011;4354;49.832;10.746;2023-03-02T13:16:19;20.58;;;7.18;;
8632;SDS011;4354;49.832;10.746;2023-03-02T13:18:49;17.45;;;6.75;;
8632;SDS011;4354;49.832;10.746;2023-03-02T13:21:20;17.67;;;7.10;;
8632;SDS011;4354;49.832;10.746;2023-03-02T13:23:53;15.70;;;6.75;;
8632;SDS011;4354;49.832;10.746;2023-03-02T13:26:53;19.05;;;7.18;;
8632;SDS011;4354;49.832;10.746;2023-03-02T13:29:20;16.00;;;7.53;;
8632;SDS011;4354;49.832;10.746;2023-03-02T13:31:50;13.55;;;6.80;;
8632;SDS011;4354;49.832;10.746;2023-03-02T13:34:35;16.52;;;7.38;;
8632;SDS011;4354;49.832;10.746;2023-03-02T13:37:02;13.32;;;7.07;;
8632;SDS011;4354;49.832;10.746;2023-03-02T13:39:53;15.15;;;7.38;;
8632;SDS011;4354;49.832;10.746;2023-03-02T13:42:25;13.32;;;7.18;;
8632;SDS011;4354;49.832;10.746;2023-03-02T13:48:10;15.85;;;7.30;;
8632;SDS011;4354;49.832;10.746;2023-03-02T13:50:48;14.38;;;7.13;;
8632;SDS011;4354;49.832;10.746;2023-03-02T13:53:21;10.77;;;6.60;;
8632;SDS011;4354;49.832;10.746;2023-03-02T13:55:49;17.05;;;7.72;;
8632;SDS011;4354;49.832;10.746;2023-03-02T13:58:18;14.20;;;7.10;;
8632;SDS011;4354;49.832;10.746;2023-03-02T14:00:47;15.77;;;7.20;;
8632;SDS011;4354;49.832;10.746;2023-03-02T14:03:26;17.88;;;6.90;;
8632;SDS011;4354;49.832;10.746;2023-03-02T14:05:55;21.45;;;7.40;;
8632;SDS011;4354;49.832;10.746;2023-03-02T14:08:23;17.42;;;6.93;;
8632;SDS011;4354;49.832;10.746;2023-03-02T14:10:51;15.95;;;6.78;;
8632;SDS011;4354;49.832;10.746;2023-03-02T14:15:55;13.35;;;6.82;;
8632;SDS011;4354;49.832;10.746;2023-03-02T14:18:24;11.30;;;6.95;;
8632;SDS011;4354;49.832;10.746;2023-03-02T14:20:51;19.65;;;7.57;;
8632;SDS011;4354;49.832;10.746;2023-03-02T14:23:18;16.30;;;8.30;;
8632;SDS011;4354;49.832;10.746;2023-03-02T14:25:45;15.38;;;8.18;;
8632;SDS011;4354;49.832;10.746;2023-03-02T14:28:12;19.73;;;8.52;;
8632;SDS011;4354;49.832;10.746;2023-03-02T14:30:48;17.60;;;7.53;;
8632;SDS011;4354;49.832;10.746;2023-03-02T14:33:18;17.55;;;8.07;;
8632;SDS011;4354;49.832;10.746;2023-03-02T14:35:47;18.85;;;7.68;;
8632;SDS011;4354;49.832;10.746;2023-03-02T14:38:16;14.25;;;7.60;;
8632;SDS011;4354;49.832;10.746;2023-03-02T14:40:43;11.10;;;6.90;;
8632;SDS011;4354;49.832;10.746;2023-03-02T14:43:10;15.20;;;6.75;;
8632;SDS011;4354;49.832;10.746;2023-03-02T14:45:36;14.15;;;7.05;;
8632;SDS011;4354;49.832;10.746;2023-03-02T14:48:03;16.98;;;6.82;;
8632;SDS011;4354;49.832;10.746;2023-03-02T14:50:31;17.42;;;7.15;;
8632;SDS011;4354;49.832;10.746;2023-03-02T14:53:04;15.88;;;7.30;;
8632;SDS011;4354;49.832;10.746;2023-03-02T14:55:34;17.00;;;7.75;;
8632;SDS011;4354;49.832;10.746;2023-03-02T14:58:03;13.43;;;6.88;;
8632;SDS011;4354;49.832;10.746;2023-03-02T15:00:38;15.07;;;6.95;;
8632;SDS011;4354;49.832;10.746;2023-03-02T15:03:04;16.48;;;7.00;;
8632;SDS011;4354;49.832;10.746;2023-03-02T15:05:31;15.25;;;7.80;;
8632;SDS011;4354;49.832;10.746;2023-03-02T15:07:58;12.65;;;6.43;;
8632;SDS011;4354;49.832;10.746;2023-03-02T15:10:25;18.70;;;7.13;;
8632;SDS011;4354;49.832;10.746;2023-03-02T15:12:52;15.70;;;7.78;;
8632;SDS011;4354;49.832;10.746;2023-03-02T15:15:18;16.35;;;7.45;;
8632;SDS011;4354;49.832;10.746;2023-03-02T15:17:45;18.88;;;8.75;;
8632;SDS011;4354;49.832;10.746;2023-03-02T15:20:13;14.32;;;7.50;;
8632;SDS011;4354;49.832;10.746;2023-03-02T15:22:41;16.07;;;7.10;;
8632;SDS011;4354;49.832;10.746;2023-03-02T15:25:08;12.40;;;6.63;;
8632;SDS011;4354;49.832;10.746;2023-03-02T15:27:35;19.37;;;7.70;;
8632;SDS011;4354;49.832;10.746;2023-03-02T15:30:03;15.90;;;7.20;;
8632;SDS011;4354;49.832;10.746;2023-03-02T15:32:30;18.07;;;6.80;;
8632;SDS011;4354;49.832;10.746;2023-03-02T15:34:57;13.27;;;6.83;;
8632;SDS011;4354;49.832;10.746;2023-03-02T15:37:24;16.17;;;7.17;;
8632;SDS011;4354;49.832;10.746;2023-03-02T15:39:52;18.27;;;7.10;;
8632;SDS011;4354;49.832;10.746;2023-03-02T15:42:20;14.70;;;7.27;;
8632;SDS011;4354;49.832;10.746;2023-03-02T15:44:47;18.90;;;9.13;;
8632;SDS011;4354;49.832;10.746;2023-03-02T15:47:14;21.30;;;9.53;;
8632;SDS011;4354;49.832;10.746;2023-03-02T15:49:41;19.43;;;9.07;;
8632;SDS011;4354;49.832;10.746;2023-03-02T15:52:08;13.40;;;7.73;;
8632;SDS011;4354;49.832;10.746;2023-03-02T15:54:35;14.50;;;8.57;;
8632;SDS011;4354;49.832;10.746;2023-03-02T15:57:02;17.33;;;8.13;;
8632;SDS011;4354;49.832;10.746;2023-03-02T15:59:29;40.67;;;19.50;;
8632;SDS011;4354;49.832;10.746;2023-03-02T16:01:57;35.13;;;20.10;;